sensor_id;sensor_type;location;lat;lon;timestamp;P1;durP1;ratioP1;P2;durP2;ratioP2
37349;SDS011;23231;52.358;4.926;2024-01-25T00:01:48;33.90;;;4.93;;
37349;SDS011;23231;52.358;4.926;2024-01-25T00:07:16;23.80;;;4.32;;
37349;SDS011;23231;52.358;4.926;2024-01-25T00:12:27;29.70;;;4.40;;
37349;SDS011;23231;52.358;4.926;2024-01-25T00:17:38;26.23;;;4.97;;
37349;SDS011;23231;52.358;4.926;2024-01-25T00:22:50;26.00;;;4.20;;
37349;SDS011;23231;52.358;4.926;2024-01-25T00:27:59;30.98;;;4.68;;
37349;SDS011;23231;52.358;4.926;2024-01-25T00:33:09;32.63;;;4.50;;
37349;SDS011;23231;52.358;4.926;2024-01-25T00:38:18;24.48;;;4.97;;
37349;SDS011;23231;52.358;4.926;2024-01-25T00:43:32;29.40;;;5.82;;
37349;SDS011;23231;52.358;4.926;2024-01-25T00:48:37;25.25;;;3.97;;
37349;SDS011;23231;52.358;4.926;2024-01-25T00:53:47;23.55;;;4.65;;
37349;SDS011;23231;52.358;4.926;2024-01-25T00:59:12;29.07;;;4.83;;
37349;SDS011;23231;52.358;4.926;2024-01-25T01:04:16;28.80;;;4.50;;
37349;SDS011;23231;52.358;4.926;2024-01-25T01:09:31;30.38;;;5.03;;
37349;SDS011;23231;52.358;4.926;2024-01-25T01:14:43;28.40;;;5.05;;
37349;SDS011;23231;52.358;4.926;2024-01-25T01:19:52;21.52;;;5.43;;
37349;SDS011;23231;52.358;4.926;2024-01-25T01:24:58;30.55;;;5.00;;
37349;SDS011;23231;52.358;4.926;2024-01-25T01:30:08;35.85;;;6.43;;
37349;SDS011;23231;52.358;4.926;2024-01-25T01:35:33;30.48;;;4.63;;
37349;SDS011;23231;52.358;4.926;2024-01-25T01:40:47;31.67;;;5.32;;
37349;SDS011;23231;52.358;4.926;2024-01-25T01:45:58;26.35;;;4.43;;
37349;SDS011;23231;52.358;4.926;2024-01-25T01:51:11;25.98;;;4.72;;
37349;SDS011;23231;52.358;4.926;2024-01-25T01:56:20;25.95;;;4.53;;
37349;SDS011;23231;52.358;4.926;2024-01-25T02:01:36;33.70;;;4.90;;
37349;SDS011;23231;52.358;4.926;2024-01-25T02:06:42;30.45;;;4.80;;
37349;SDS011;23231;52.358;4.926;2024-01-25T02:16:50;30.13;;;4.95;;
37349;SDS011;23231;52.358;4.926;2024-01-25T02:21:55;29.00;;;5.05;;
37349;SDS011;23231;52.358;4.926;2024-01-25T02:27:03;27.75;;;5.38;;
37349;SDS011;23231;52.358;4.926;2024-01-25T02:32:10;30.27;;;5.78;;
37349;SDS011;23231;52.358;4.926;2024-01-25T02:37:15;33.38;;;5.30;;
37349;SDS011;23231;52.358;4.926;2024-01-25T02:42:28;28.55;;;4.95;;
37349;SDS011;23231;52.358;4.926;2024-01-25T02:47:46;28.85;;;6.00;;
37349;SDS011;23231;52.358;4.926;2024-01-25T02:52:55;28.02;;;4.35;;
37349;SDS011;23231;52.358;4.926;2024-01-25T02:58:19;32.72;;;5.68;;
37349;SDS011;23231;52.358;4.926;2024-01-25T03:03:30;32.17;;;5.38;;
37349;SDS011;23231;52.358;4.926;2024-01-25T03:08:40;26.98;;;5.28;;
37349;SDS011;23231;52.358;4.926;2024-01-25T03:14:01;27.02;;;4.95;;
37349;SDS011;23231;52.358;4.926;2024-01-25T03:19:09;39.00;;;5.72;;
37349;SDS011;23231;52.358;4.926;2024-01-25T03:24:17;35.38;;;5.22;;
37349;SDS011;23231;52.358;4.926;2024-01-25T03:29:27;34.35;;;5.20;;
37349;SDS011;23231;52.358;4.926;2024-01-25T03:34:34;28.75;;;4.90;;
37349;SDS011;23231;52.358;4.926;2024-01-25T03:40:00;37.35;;;5.00;;
37349;SDS011;23231;52.358;4.926;2024-01-25T03:45:09;26.23;;;4.93;;
37349;SDS011;23231;52.358;4.926;2024-01-25T03:50:26;25.55;;;5.68;;
37349;SDS011;23231;52.358;4.926;2024-01-25T03:55:34;26.98;;;5.07;;
37349;SDS011;23231;52.358;4.926;2024-01-25T04:00:54;38.45;;;5.75;;
37349;SDS011;23231;52.358;4.926;2024-01-25T04:05:55;30.90;;;4.93;;
37349;SDS011;23231;52.358;4.926;2024-01-25T04:11:05;26.75;;;5.38;;
37349;SDS011;23231;52.358;4.926;2024-01-25T04:21:13;24.10;;;4.20;;
37349;SDS011;23231;52.358;4.926;2024-01-25T04:26:14;44.13;;;4.85;;
37349;SDS011;23231;52.358;4.926;2024-01-25T04:31:16;26.58;;;4.40;;
37349;SDS011;23231;52.358;4.926;2024-01-25T04:36:17;38.65;;;6.85;;
37349;SDS011;23231;52.358;4.926;2024-01-25T04:41:17;35.35;;;4.65;;
37349;SDS011;23231;52.358;4.926;2024-01-25T04:46:18;31.08;;;5.07;;
37349;SDS011;23231;52.358;4.926;2024-01-25T04:51:18;27.27;;;5.20;;
37349;SDS011;23231;52.358;4.926;2024-01-25T04:56:22;32.03;;;6.38;;
37349;SDS011;23231;52.358;4.926;2024-01-25T05:01:22;28.30;;;4.43;;
37349;SDS011;23231;52.358;4.926;2024-01-25T05:06:23;31.27;;;4.78;;
37349;SDS011;23231;52.358;4.926;2024-01-25T05:11:24;24.27;;;5.57;;
37349;SDS011;23231;52.358;4.926;2024-01-25T05:16:24;33.45;;;5.30;;
37349;SDS011;23231;52.358;4.926;2024-01-25T05:21:25;32.20;;;6.53;;
37349;SDS011;23231;52.358;4.926;2024-01-25T05:26:25;31.67;;;5.68;;
37349;SDS011;23231;52.358;4.926;2024-01-25T05:31:26;27.00;;;4.72;;
37349;SDS011;23231;52.358;4.926;2024-01-25T05:36:26;37.90;;;4.88;;
37349;SDS011;23231;52.358;4.926;2024-01-25T05:41:27;32.50;;;4.93;;
37349;SDS011;23231;52.358;4.926;2024-01-25T05:46:27;32.30;;;5.88;;
37349;SDS011;23231;52.358;4.926;2024-01-25T05:51:28;29.33;;;5.82;;
37349;SDS011;23231;52.358;4.926;2024-01-25T05:56:28;22.35;;;5.30;;
37349;SDS011;23231;52.358;4.926;2024-01-25T06:01:29;29.10;;;6.35;;
37349;SDS011;23231;52.358;4.926;2024-01-25T06:06:30;30.85;;;5.57;;
37349;SDS011;23231;52.358;4.926;2024-01-25T06:11:30;33.20;;;5.65;;
37349;SDS011;23231;52.358;4.926;2024-01-25T06:16:33;28.58;;;4.38;;
37349;SDS011;23231;52.358;4.926;2024-01-25T06:21:33;32.28;;;5.32;;
37349;SDS011;23231;52.358;4.926;2024-01-25T06:26:35;28.50;;;5.38;;
37349;SDS011;23231;52.358;4.926;2024-01-25T06:31:42;27.13;;;6.68;;
37349;SDS011;23231;52.358;4.926;2024-01-25T06:36:43;35.95;;;5.38;;
37349;SDS011;23231;52.358;4.926;2024-01-25T06:41:44;33.47;;;6.63;;
37349;SDS011;23231;52.358;4.926;2024-01-25T06:46:45;33.10;;;5.53;;
37349;SDS011;23231;52.358;4.926;2024-01-25T06:51:45;25.52;;;5.57;;
37349;SDS011;23231;52.358;4.926;2024-01-25T06:56:46;28.05;;;5.25;;
37349;SDS011;23231;52.358;4.926;2024-01-25T07:01:46;29.70;;;5.43;;
37349;SDS011;23231;52.358;4.926;2024-01-25T07:06:47;30.38;;;6.15;;
37349;SDS011;23231;52.358;4.926;2024-01-25T07:11:47;31.08;;;5.80;;
37349;SDS011;23231;52.358;4.926;2024-01-25T07:16:48;31.40;;;5.78;;
37349;SDS011;23231;52.358;4.926;2024-01-25T07:21:48;25.75;;;5.30;;
37349;SDS011;23231;52.358;4.926;2024-01-25T07:26:49;34.75;;;6.20;;
37349;SDS011;23231;52.358;4.926;2024-01-25T07:31:49;26.30;;;5.57;;
37349;SDS011;23231;52.358;4.926;2024-01-25T07:36:50;34.80;;;6.25;;
37349;SDS011;23231;52.358;4.926;2024-01-25T07:41:50;37.15;;;5.95;;
37349;SDS011;23231;52.358;4.926;2024-01-25T07:46:51;28.58;;;5.70;;
37349;SDS011;23231;52.358;4.926;2024-01-25T07:51:52;28.20;;;6.10;;
37349;SDS011;23231;52.358;4.926;2024-01-25T07:56:52;33.80;;;7.47;;
37349;SDS011;23231;52.358;4.926;2024-01-25T08:01:53;30.92;;;6.43;;
37349;SDS011;23231;52.358;4.926;2024-01-25T08:06:53;32.85;;;6.47;;
37349;SDS011;23231;52.358;4.926;2024-01-25T08:11:53;30.60;;;5.93;;
37349;SDS011;23231;52.358;4.926;2024-01-25T08:16:54;31.13;;;7.13;;
37349;SDS011;23231;52.358;4.926;2024-01-25T08:21:55;29.88;;;5.88;;
37349;SDS011;23231;52.358;4.926;2024-01-25T08:26:56;37.67;;;6.78;;
37349;SDS011;23231;52.358;4.926;2024-01-25T08:31:57;22.85;;;5.97;;
37349;SDS011;23231;52.358;4.926;2024-01-25T08:36:57;29.17;;;6.22;;
37349;SDS011;23231;52.358;4.926;2024-01-25T08:41:57;28.60;;;6.78;;
37349;SDS011;23231;52.358;4.926;2024-01-25T08:47:04;25.48;;;6.80;;
37349;SDS011;23231;52.358;4.926;2024-01-25T08:52:05;29.90;;;6.30;;
37349;SDS011;23231;52.358;4.926;2024-01-25T08:57:06;32.47;;;6.40;;
37349;SDS011;23231;52.358;4.926;2024-01-25T09:02:07;37.28;;;6.53;;
37349;SDS011;23231;52.358;4.926;2024-01-25T09:07:07;31.40;;;7.43;;
37349;SDS011;23231;52.358;4.926;2024-01-25T09:12:08;35.28;;;7.40;;
37349;SDS011;23231;52.358;4.926;2024-01-25T09:17:11;29.35;;;5.88;;
37349;SDS011;23231;52.358;4.926;2024-01-25T09:22:13;28.73;;;6.25;;
37349;SDS011;23231;52.358;4.926;2024-01-25T09:27:16;30.25;;;7.00;;
37349;SDS011;23231;52.358;4.926;2024-01-25T09:32:16;26.20;;;5.78;;
37349;SDS011;23231;52.358;4.926;2024-01-25T09:37:17;28.13;;;6.55;;
37349;SDS011;23231;52.358;4.926;2024-01-25T09:42:19;30.70;;;6.13;;
37349;SDS011;23231;52.358;4.926;2024-01-25T09:47:20;28.17;;;7.10;;
37349;SDS011;23231;52.358;4.926;2024-01-25T09:52:21;28.73;;;6.15;;
37349;SDS011;23231;52.358;4.926;2024-01-25T09:57:27;32.38;;;6.05;;
37349;SDS011;23231;52.358;4.926;2024-01-25T10:02:28;27.17;;;6.30;;
37349;SDS011;23231;52.358;4.926;2024-01-25T10:07:42;33.90;;;6.60;;
37349;SDS011;23231;52.358;4.926;2024-01-25T10:17:54;23.85;;;6.38;;
37349;SDS011;23231;52.358;4.926;2024-01-25T10:22:58;27.73;;;6.65;;
37349;SDS011;23231;52.358;4.926;2024-01-25T10:28:19;29.23;;;6.85;;
37349;SDS011;23231;52.358;4.926;2024-01-25T10:33:31;30.42;;;7.45;;
37349;SDS011;23231;52.358;4.926;2024-01-25T10:38:36;26.95;;;7.78;;
37349;SDS011;23231;52.358;4.926;2024-01-25T10:43:49;28.42;;;7.80;;
37349;SDS011;23231;52.358;4.926;2024-01-25T10:49:04;29.15;;;7.10;;
37349;SDS011;23231;52.358;4.926;2024-01-25T10:54:14;37.25;;;7.65;;
37349;SDS011;23231;52.358;4.926;2024-01-25T10:59:19;31.13;;;7.95;;
37349;SDS011;23231;52.358;4.926;2024-01-25T11:04:34;40.10;;;8.05;;
37349;SDS011;23231;52.358;4.926;2024-01-25T11:09:39;28.67;;;8.50;;
37349;SDS011;23231;52.358;4.926;2024-01-25T11:14:45;26.52;;;7.38;;
37349;SDS011;23231;52.358;4.926;2024-01-25T11:19:59;27.88;;;7.20;;
37349;SDS011;23231;52.358;4.926;2024-01-25T11:25:11;25.45;;;6.97;;
37349;SDS011;23231;52.358;4.926;2024-01-25T11:30:36;34.05;;;7.80;;
37349;SDS011;23231;52.358;4.926;2024-01-25T11:35:40;34.80;;;7.27;;
37349;SDS011;23231;52.358;4.926;2024-01-25T11:40:43;27.27;;;7.07;;
37349;SDS011;23231;52.358;4.926;2024-01-25T11:45:47;29.05;;;6.93;;
37349;SDS011;23231;52.358;4.926;2024-01-25T11:50:50;26.95;;;5.57;;
37349;SDS011;23231;52.358;4.926;2024-01-25T11:55:55;31.63;;;6.88;;
37349;SDS011;23231;52.358;4.926;2024-01-25T12:00:59;23.25;;;6.45;;
37349;SDS011;23231;52.358;4.926;2024-01-25T12:06:09;32.05;;;7.13;;
37349;SDS011;23231;52.358;4.926;2024-01-25T12:11:22;28.52;;;6.15;;
37349;SDS011;23231;52.358;4.926;2024-01-25T12:16:27;34.30;;;7.35;;
37349;SDS011;23231;52.358;4.926;2024-01-25T12:21:36;28.58;;;6.80;;
37349;SDS011;23231;52.358;4.926;2024-01-25T12:26:41;25.77;;;6.10;;
37349;SDS011;23231;52.358;4.926;2024-01-25T12:31:48;26.05;;;6.78;;
37349;SDS011;23231;52.358;4.926;2024-01-25T12:36:50;28.67;;;6.95;;
37349;SDS011;23231;52.358;4.926;2024-01-25T12:41:52;34.28;;;8.23;;
37349;SDS011;23231;52.358;4.926;2024-01-25T12:47:04;28.00;;;7.35;;
37349;SDS011;23231;52.358;4.926;2024-01-25T12:57:18;27.73;;;7.45;;
37349;SDS011;23231;52.358;4.926;2024-01-25T13:02:24;26.23;;;6.80;;
37349;SDS011;23231;52.358;4.926;2024-01-25T13:07:27;27.05;;;7.35;;
37349;SDS011;23231;52.358;4.926;2024-01-25T13:12:32;36.85;;;8.25;;
37349;SDS011;23231;52.358;4.926;2024-01-25T13:17:38;34.15;;;8.57;;
37349;SDS011;23231;52.358;4.926;2024-01-25T13:22:39;31.90;;;8.73;;
37349;SDS011;23231;52.358;4.926;2024-01-25T13:27:46;30.08;;;8.45;;
37349;SDS011;23231;52.358;4.926;2024-01-25T13:33:11;31.52;;;8.90;;
37349;SDS011;23231;52.358;4.926;2024-01-25T13:38:12;31.60;;;8.75;;
37349;SDS011;23231;52.358;4.926;2024-01-25T13:43:26;29.23;;;9.60;;
37349;SDS011;23231;52.358;4.926;2024-01-25T13:48:40;32.97;;;9.30;;
37349;SDS011;23231;52.358;4.926;2024-01-25T13:53:43;31.65;;;9.70;;
37349;SDS011;23231;52.358;4.926;2024-01-25T13:58:51;39.35;;;10.45;;
37349;SDS011;23231;52.358;4.926;2024-01-25T14:04:00;34.58;;;10.95;;
37349;SDS011;23231;52.358;4.926;2024-01-25T14:09:01;32.28;;;11.30;;
37349;SDS011;23231;52.358;4.926;2024-01-25T14:14:05;33.60;;;11.03;;
37349;SDS011;23231;52.358;4.926;2024-01-25T14:19:07;39.50;;;11.18;;
37349;SDS011;23231;52.358;4.926;2024-01-25T14:24:14;42.72;;;11.60;;
37349;SDS011;23231;52.358;4.926;2024-01-25T14:29:17;34.50;;;10.98;;
37349;SDS011;23231;52.358;4.926;2024-01-25T14:34:20;38.35;;;10.65;;
37349;SDS011;23231;52.358;4.926;2024-01-25T14:39:21;36.97;;;10.63;;
37349;SDS011;23231;52.358;4.926;2024-01-25T14:44:25;34.75;;;10.70;;
37349;SDS011;23231;52.358;4.926;2024-01-25T14:49:26;39.95;;;11.40;;
37349;SDS011;23231;52.358;4.926;2024-01-25T14:54:31;31.90;;;10.63;;
37349;SDS011;23231;52.358;4.926;2024-01-25T14:59:35;39.88;;;10.80;;
37349;SDS011;23231;52.358;4.926;2024-01-25T15:04:41;30.23;;;10.50;;
37349;SDS011;23231;52.358;4.926;2024-01-25T15:09:42;32.28;;;10.98;;
37349;SDS011;23231;52.358;4.926;2024-01-25T15:14:46;38.23;;;10.93;;
37349;SDS011;23231;52.358;4.926;2024-01-25T15:19:49;31.67;;;10.48;;
37349;SDS011;23231;52.358;4.926;2024-01-25T15:24:53;35.28;;;11.20;;
37349;SDS011;23231;52.358;4.926;2024-01-25T15:29:57;43.97;;;10.98;;
37349;SDS011;23231;52.358;4.926;2024-01-25T15:34:58;38.28;;;11.27;;
37349;SDS011;23231;52.358;4.926;2024-01-25T15:45:13;34.85;;;10.70;;
37349;SDS011;23231;52.358;4.926;2024-01-25T15:50:22;34.40;;;11.80;;
37349;SDS011;23231;52.358;4.926;2024-01-25T15:55:26;43.47;;;12.65;;
37349;SDS011;23231;52.358;4.926;2024-01-25T16:00:28;53.53;;;12.60;;
37349;SDS011;23231;52.358;4.926;2024-01-25T16:05:28;41.22;;;13.13;;
37349;SDS011;23231;52.358;4.926;2024-01-25T16:10:29;49.67;;;14.93;;
37349;SDS011;23231;52.358;4.926;2024-01-25T16:15:31;50.55;;;15.05;;
37349;SDS011;23231;52.358;4.926;2024-01-25T16:20:36;59.30;;;16.20;;
37349;SDS011;23231;52.358;4.926;2024-01-25T16:25:50;60.60;;;17.70;;
37349;SDS011;23231;52.358;4.926;2024-01-25T16:31:04;54.63;;;18.48;;
37349;SDS011;23231;52.358;4.926;2024-01-25T16:36:09;63.22;;;19.17;;
37349;SDS011;23231;52.358;4.926;2024-01-25T16:41:19;61.63;;;19.63;;
37349;SDS011;23231;52.358;4.926;2024-01-25T16:46:26;58.70;;;19.65;;
37349;SDS011;23231;52.358;4.926;2024-01-25T16:51:42;57.75;;;18.63;;
37349;SDS011;23231;52.358;4.926;2024-01-25T16:56:46;55.65;;;18.33;;
37349;SDS011;23231;52.358;4.926;2024-01-25T17:01:50;47.80;;;18.35;;
37349;SDS011;23231;52.358;4.926;2024-01-25T17:07:02;48.75;;;18.95;;
37349;SDS011;23231;52.358;4.926;2024-01-25T17:12:09;53.80;;;20.23;;
37349;SDS011;23231;52.358;4.926;2024-01-25T17:17:19;51.50;;;21.52;;
37349;SDS011;23231;52.358;4.926;2024-01-25T17:22:22;39.67;;;16.50;;
37349;SDS011;23231;52.358;4.926;2024-01-25T17:27:24;43.92;;;18.58;;
37349;SDS011;23231;52.358;4.926;2024-01-25T17:32:27;48.40;;;19.27;;
37349;SDS011;23231;52.358;4.926;2024-01-25T17:37:28;49.67;;;19.85;;
37349;SDS011;23231;52.358;4.926;2024-01-25T17:42:35;59.13;;;21.52;;
37349;SDS011;23231;52.358;4.926;2024-01-25T17:47:38;67.95;;;22.98;;
37349;SDS011;23231;52.358;4.926;2024-01-25T17:52:39;66.70;;;22.13;;
37349;SDS011;23231;52.358;4.926;2024-01-25T17:57:39;61.28;;;22.73;;
37349;SDS011;23231;52.358;4.926;2024-01-25T18:02:45;56.42;;;20.17;;
37349;SDS011;23231;52.358;4.926;2024-01-25T18:07:45;54.78;;;19.75;;
37349;SDS011;23231;52.358;4.926;2024-01-25T18:12:46;52.10;;;19.98;;
37349;SDS011;23231;52.358;4.926;2024-01-25T18:17:46;49.28;;;20.33;;
37349;SDS011;23231;52.358;4.926;2024-01-25T18:22:47;54.60;;;21.45;;
37349;SDS011;23231;52.358;4.926;2024-01-25T18:27:47;50.72;;;18.80;;
37349;SDS011;23231;52.358;4.926;2024-01-25T18:32:49;47.25;;;18.77;;
37349;SDS011;23231;52.358;4.926;2024-01-25T18:37:50;51.80;;;20.23;;
37349;SDS011;23231;52.358;4.926;2024-01-25T18:42:50;58.83;;;21.92;;
37349;SDS011;23231;52.358;4.926;2024-01-25T18:47:51;54.28;;;21.38;;
37349;SDS011;23231;52.358;4.926;2024-01-25T18:52:51;65.35;;;22.17;;
37349;SDS011;23231;52.358;4.926;2024-01-25T18:57:52;51.75;;;22.02;;
37349;SDS011;23231;52.358;4.926;2024-01-25T19:02:52;55.17;;;21.55;;
37349;SDS011;23231;52.358;4.926;2024-01-25T19:07:53;46.97;;;18.75;;
37349;SDS011;23231;52.358;4.926;2024-01-25T19:12:54;41.50;;;17.40;;
37349;SDS011;23231;52.358;4.926;2024-01-25T19:17:54;38.80;;;17.27;;
37349;SDS011;23231;52.358;4.926;2024-01-25T19:22:58;41.08;;;16.70;;
37349;SDS011;23231;52.358;4.926;2024-01-25T19:27:58;43.45;;;19.20;;
37349;SDS011;23231;52.358;4.926;2024-01-25T19:33:00;40.75;;;18.58;;
37349;SDS011;23231;52.358;4.926;2024-01-25T19:38:05;44.38;;;20.35;;
37349;SDS011;23231;52.358;4.926;2024-01-25T19:43:09;44.38;;;19.15;;
37349;SDS011;23231;52.358;4.926;2024-01-25T19:48:16;45.95;;;19.27;;
37349;SDS011;23231;52.358;4.926;2024-01-25T19:53:16;49.63;;;22.05;;
37349;SDS011;23231;52.358;4.926;2024-01-25T19:58:17;47.85;;;21.45;;
37349;SDS011;23231;52.358;4.926;2024-01-25T20:03:18;50.85;;;22.70;;
37349;SDS011;23231;52.358;4.926;2024-01-25T20:08:18;47.90;;;22.13;;
37349;SDS011;23231;52.358;4.926;2024-01-25T20:13:23;58.53;;;22.57;;
37349;SDS011;23231;52.358;4.926;2024-01-25T20:18:24;50.55;;;23.38;;
37349;SDS011;23231;52.358;4.926;2024-01-25T20:23:25;57.53;;;24.83;;
37349;SDS011;23231;52.358;4.926;2024-01-25T20:28:26;54.38;;;22.75;;
37349;SDS011;23231;52.358;4.926;2024-01-25T20:33:26;55.78;;;23.50;;
37349;SDS011;23231;52.358;4.926;2024-01-25T20:38:36;66.45;;;27.45;;
37349;SDS011;23231;52.358;4.926;2024-01-25T20:43:46;65.80;;;27.40;;
37349;SDS011;23231;52.358;4.926;2024-01-25T20:48:46;71.75;;;28.55;;
37349;SDS011;23231;52.358;4.926;2024-01-25T20:53:50;70.88;;;28.17;;
37349;SDS011;23231;52.358;4.926;2024-01-25T20:58:52;81.35;;;31.40;;
37349;SDS011;23231;52.358;4.926;2024-01-25T21:03:55;73.10;;;30.02;;
37349;SDS011;23231;52.358;4.926;2024-01-25T21:09:10;64.40;;;25.48;;
37349;SDS011;23231;52.358;4.926;2024-01-25T21:14:13;69.43;;;26.65;;
37349;SDS011;23231;52.358;4.926;2024-01-25T21:19:13;54.75;;;23.80;;
37349;SDS011;23231;52.358;4.926;2024-01-25T21:24:14;57.30;;;23.27;;
37349;SDS011;23231;52.358;4.926;2024-01-25T21:29:16;52.40;;;23.70;;
37349;SDS011;23231;52.358;4.926;2024-01-25T21:34:17;53.25;;;22.50;;
37349;SDS011;23231;52.358;4.926;2024-01-25T21:39:17;48.33;;;22.52;;
37349;SDS011;23231;52.358;4.926;2024-01-25T21:44:18;48.67;;;21.70;;
37349;SDS011;23231;52.358;4.926;2024-01-25T21:49:18;46.72;;;21.52;;
37349;SDS011;23231;52.358;4.926;2024-01-25T21:54:19;43.67;;;21.17;;
37349;SDS011;23231;52.358;4.926;2024-01-25T21:59:24;38.97;;;19.83;;
37349;SDS011;23231;52.358;4.926;2024-01-25T22:04:29;46.15;;;21.25;;
37349;SDS011;23231;52.358;4.926;2024-01-25T22:09:31;35.78;;;18.55;;
37349;SDS011;23231;52.358;4.926;2024-01-25T22:14:31;31.92;;;16.20;;
37349;SDS011;23231;52.358;4.926;2024-01-25T22:19:36;30.60;;;16.33;;
37349;SDS011;23231;52.358;4.926;2024-01-25T22:24:41;23.23;;;13.05;;
37349;SDS011;23231;52.358;4.926;2024-01-25T22:29:49;20.00;;;10.50;;
37349;SDS011;23231;52.358;4.926;2024-01-25T22:34:53;18.20;;;9.27;;
37349;SDS011;23231;52.358;4.926;2024-01-25T22:39:57;16.45;;;9.13;;
37349;SDS011;23231;52.358;4.926;2024-01-25T22:45:03;13.57;;;8.18;;
37349;SDS011;23231;52.358;4.926;2024-01-25T22:50:04;15.18;;;8.10;;
37349;SDS011;23231;52.358;4.926;2024-01-25T22:55:09;14.70;;;8.27;;
37349;SDS011;23231;52.358;4.926;2024-01-25T23:00:17;14.70;;;8.00;;
37349;SDS011;23231;52.358;4.926;2024-01-25T23:05:31;18.95;;;8.82;;
37349;SDS011;23231;52.358;4.926;2024-01-25T23:10:42;19.05;;;10.55;;
37349;SDS011;23231;52.358;4.926;2024-01-25T23:15:53;20.65;;;11.20;;
37349;SDS011;23231;52.358;4.926;2024-01-25T23:21:05;25.17;;;13.63;;
37349;SDS011;23231;52.358;4.926;2024-01-25T23:26:10;27.60;;;14.60;;
37349;SDS011;23231;52.358;4.926;2024-01-25T23:31:13;25.33;;;13.85;;
37349;SDS011;23231;52.358;4.926;2024-01-25T23:36:35;27.27;;;13.90;;
37349;SDS011;23231;52.358;4.926;2024-01-25T23:41:40;24.63;;;13.63;;
37349;SDS011;23231;52.358;4.926;2024-01-25T23:46:44;23.60;;;13.45;;
37349;SDS011;23231;52.358;4.926;2024-01-25T23:51:46;26.08;;;13.27;;
37349;SDS011;23231;52.358;4.926;2024-01-25T23:56:49;23.42;;;13.02;;
